sensor_id;sensor_type;location;lat;lon;timestamp;pressure;altitude;pressure_sealevel;temperature;humidity
9239;BME280;4654;43.242;27.976;2024-03-02T00:00:50;98804.72;;;9.03;nan
9239;BME280;4654;43.242;27.976;2024-03-02T00:03:19;98799.50;;;9.03;nan
9239;BME280;4654;43.242;27.976;2024-03-02T00:05:49;98803.97;;;8.97;nan
9239;BME280;4654;43.242;27.976;2024-03-02T00:08:23;98812.66;;;8.93;nan
9239;BME280;4654;43.242;27.976;2024-03-02T00:10:57;98814.22;;;8.94;nan
9239;BME280;4654;43.242;27.976;2024-03-02T00:13:25;98796.41;;;8.91;nan
9239;BME280;4654;43.242;27.976;2024-03-02T00:15:53;98785.91;;;8.91;nan
9239;BME280;4654;43.242;27.976;2024-03-02T00:18:25;98777.28;;;8.90;nan
9239;BME280;4654;43.242;27.976;2024-03-02T00:20:53;98797.97;;;8.92;nan
9239;BME280;4654;43.242;27.976;2024-03-02T00:23:22;98801.63;;;8.91;nan
9239;BME280;4654;43.242;27.976;2024-03-02T00:25:51;98794.06;;;8.89;nan
9239;BME280;4654;43.242;27.976;2024-03-02T00:28:22;98784.09;;;8.91;nan
9239;BME280;4654;43.242;27.976;2024-03-02T00:30:56;98776.81;;;8.83;nan
9239;BME280;4654;43.242;27.976;2024-03-02T00:33:26;98780.50;;;8.77;nan
9239;BME280;4654;43.242;27.976;2024-03-02T00:35:53;98780.25;;;8.74;nan
9239;BME280;4654;43.242;27.976;2024-03-02T00:38:21;98779.25;;;8.70;nan
9239;BME280;4654;43.242;27.976;2024-03-02T00:40:48;98777.94;;;8.68;nan
9239;BME280;4654;43.242;27.976;2024-03-02T00:43:41;98766.47;;;8.59;nan
9239;BME280;4654;43.242;27.976;2024-03-02T00:46:11;98764.13;;;8.57;nan
9239;BME280;4654;43.242;27.976;2024-03-02T00:48:39;98757.84;;;8.58;nan
9239;BME280;4654;43.242;27.976;2024-03-02T00:51:06;98747.13;;;8.50;nan
9239;BME280;4654;43.242;27.976;2024-03-02T00:53:35;98745.81;;;8.52;nan
9239;BME280;4654;43.242;27.976;2024-03-02T00:56:02;98746.88;;;8.51;nan
9239;BME280;4654;43.242;27.976;2024-03-02T00:58:29;98753.13;;;8.50;nan
9239;BME280;4654;43.242;27.976;2024-03-02T01:00:58;98744.25;;;8.46;nan
9239;BME280;4654;43.242;27.976;2024-03-02T01:03:25;98755.00;;;8.45;nan
9239;BME280;4654;43.242;27.976;2024-03-02T01:05:52;98754.50;;;8.43;nan
9239;BME280;4654;43.242;27.976;2024-03-02T01:08:19;98755.56;;;8.42;nan
9239;BME280;4654;43.242;27.976;2024-03-02T01:10:47;98763.44;;;8.37;nan
9239;BME280;4654;43.242;27.976;2024-03-02T01:13:14;98751.38;;;8.36;nan
9239;BME280;4654;43.242;27.976;2024-03-02T01:15:41;98744.28;;;8.41;nan
9239;BME280;4654;43.242;27.976;2024-03-02T01:18:10;98735.38;;;8.42;nan
9239;BME280;4654;43.242;27.976;2024-03-02T01:20:38;98732.75;;;8.42;nan
9239;BME280;4654;43.242;27.976;2024-03-02T01:23:05;98727.78;;;8.46;nan
9239;BME280;4654;43.242;27.976;2024-03-02T01:25:32;98715.47;;;8.51;nan
9239;BME280;4654;43.242;27.976;2024-03-02T01:27:59;98714.66;;;8.51;nan
9239;BME280;4654;43.242;27.976;2024-03-02T01:30:26;98708.91;;;8.49;nan
9239;BME280;4654;43.242;27.976;2024-03-02T01:32:53;98712.84;;;8.46;nan
9239;BME280;4654;43.242;27.976;2024-03-02T01:35:22;98714.69;;;8.46;nan
9239;BME280;4654;43.242;27.976;2024-03-02T01:37:49;98718.38;;;8.40;nan
9239;BME280;4654;43.242;27.976;2024-03-02T01:40:16;98713.44;;;8.33;nan
9239;BME280;4654;43.242;27.976;2024-03-02T01:42:44;98724.47;;;8.25;nan
9239;BME280;4654;43.242;27.976;2024-03-02T01:45:11;98721.06;;;8.25;nan
9239;BME280;4654;43.242;27.976;2024-03-02T01:47:38;98707.44;;;8.28;nan
9239;BME280;4654;43.242;27.976;2024-03-02T01:50:06;98699.84;;;8.31;nan
9239;BME280;4654;43.242;27.976;2024-03-02T01:52:36;98701.66;;;8.36;nan
9239;BME280;4654;43.242;27.976;2024-03-02T01:55:03;98695.72;;;8.10;nan
9239;BME280;4654;43.242;27.976;2024-03-02T01:57:31;98722.91;;;8.24;nan
9239;BME280;4654;43.242;27.976;2024-03-02T01:59:59;98719.47;;;8.29;nan
9239;BME280;4654;43.242;27.976;2024-03-02T02:02:27;98711.41;;;8.20;nan
9239;BME280;4654;43.242;27.976;2024-03-02T02:04:54;98702.00;;;8.14;nan
9239;BME280;4654;43.242;27.976;2024-03-02T02:07:21;98694.16;;;8.19;nan
9239;BME280;4654;43.242;27.976;2024-03-02T02:09:50;98686.53;;;8.23;nan
9239;BME280;4654;43.242;27.976;2024-03-02T02:12:17;98679.19;;;8.30;nan
9239;BME280;4654;43.242;27.976;2024-03-02T02:14:47;98669.50;;;8.30;nan
9239;BME280;4654;43.242;27.976;2024-03-02T02:17:16;98665.56;;;8.28;nan
9239;BME280;4654;43.242;27.976;2024-03-02T02:19:43;98647.56;;;8.16;nan
9239;BME280;4654;43.242;27.976;2024-03-02T02:22:12;98653.84;;;8.20;nan
9239;BME280;4654;43.242;27.976;2024-03-02T02:24:40;98662.75;;;8.14;nan
9239;BME280;4654;43.242;27.976;2024-03-02T02:27:07;98670.63;;;8.09;nan
9239;BME280;4654;43.242;27.976;2024-03-02T02:29:35;98679.78;;;8.07;nan
9239;BME280;4654;43.242;27.976;2024-03-02T02:32:03;98671.94;;;8.02;nan
9239;BME280;4654;43.242;27.976;2024-03-02T02:34:31;98666.94;;;8.05;nan
9239;BME280;4654;43.242;27.976;2024-03-02T02:36:58;98663.81;;;8.03;nan
9239;BME280;4654;43.242;27.976;2024-03-02T02:39:26;98668.25;;;8.08;nan
9239;BME280;4654;43.242;27.976;2024-03-02T02:41:54;98662.50;;;8.11;nan
9239;BME280;4654;43.242;27.976;2024-03-02T02:44:21;98662.22;;;8.12;nan
9239;BME280;4654;43.242;27.976;2024-03-02T02:46:48;98663.50;;;8.15;nan
9239;BME280;4654;43.242;27.976;2024-03-02T02:49:16;98657.00;;;8.17;nan
9239;BME280;4654;43.242;27.976;2024-03-02T02:51:43;98661.41;;;8.17;nan
9239;BME280;4654;43.242;27.976;2024-03-02T02:54:10;98659.63;;;8.12;nan
9239;BME280;4654;43.242;27.976;2024-03-02T02:56:39;98666.97;;;8.00;nan
9239;BME280;4654;43.242;27.976;2024-03-02T02:59:06;98665.94;;;7.96;nan
9239;BME280;4654;43.242;27.976;2024-03-02T03:01:33;98682.66;;;8.00;nan
9239;BME280;4654;43.242;27.976;2024-03-02T03:04:01;98681.09;;;7.99;nan
9239;BME280;4654;43.242;27.976;2024-03-02T03:06:28;98692.91;;;7.92;nan
9239;BME280;4654;43.242;27.976;2024-03-02T03:08:55;98702.88;;;7.90;nan
9239;BME280;4654;43.242;27.976;2024-03-02T03:11:23;98702.84;;;7.85;nan
9239;BME280;4654;43.242;27.976;2024-03-02T03:13:53;98720.09;;;7.86;nan
9239;BME280;4654;43.242;27.976;2024-03-02T03:16:21;98710.19;;;7.88;nan
9239;BME280;4654;43.242;27.976;2024-03-02T03:18:48;98703.41;;;7.87;nan
9239;BME280;4654;43.242;27.976;2024-03-02T03:21:17;98700.50;;;7.88;nan
9239;BME280;4654;43.242;27.976;2024-03-02T03:23:44;98700.22;;;7.95;nan
9239;BME280;4654;43.242;27.976;2024-03-02T03:26:11;98690.56;;;7.90;nan
9239;BME280;4654;43.242;27.976;2024-03-02T03:28:39;98693.69;;;7.92;nan
9239;BME280;4654;43.242;27.976;2024-03-02T03:31:07;98694.22;;;7.89;nan
9239;BME280;4654;43.242;27.976;2024-03-02T03:33:34;98686.38;;;7.89;nan
9239;BME280;4654;43.242;27.976;2024-03-02T03:36:02;98690.03;;;7.93;nan
9239;BME280;4654;43.242;27.976;2024-03-02T03:38:29;98683.50;;;7.91;nan
9239;BME280;4654;43.242;27.976;2024-03-02T03:40:57;98686.66;;;7.83;nan
9239;BME280;4654;43.242;27.976;2024-03-02T03:43:24;98684.34;;;7.76;nan
9239;BME280;4654;43.242;27.976;2024-03-02T03:45:51;98686.66;;;7.78;nan
9239;BME280;4654;43.242;27.976;2024-03-02T03:48:20;98684.03;;;7.83;nan
9239;BME280;4654;43.242;27.976;2024-03-02T03:50:47;98676.19;;;7.83;nan
9239;BME280;4654;43.242;27.976;2024-03-02T03:53:14;98690.81;;;7.84;nan
9239;BME280;4654;43.242;27.976;2024-03-02T03:55:41;98688.50;;;7.77;nan
9239;BME280;4654;43.242;27.976;2024-03-02T03:58:09;98677.53;;;7.75;nan
9239;BME280;4654;43.242;27.976;2024-03-02T04:00:36;98677.56;;;7.70;nan
9239;BME280;4654;43.242;27.976;2024-03-02T04:03:03;98677.81;;;7.69;nan
9239;BME280;4654;43.242;27.976;2024-03-02T04:05:32;98690.38;;;7.62;nan
9239;BME280;4654;43.242;27.976;2024-03-02T04:07:59;98681.75;;;7.56;nan
9239;BME280;4654;43.242;27.976;2024-03-02T04:10:26;98689.34;;;7.58;nan
9239;BME280;4654;43.242;27.976;2024-03-02T04:12:54;98682.03;;;7.55;nan
9239;BME280;4654;43.242;27.976;2024-03-02T04:15:21;98687.78;;;7.57;nan
9239;BME280;4654;43.242;27.976;2024-03-02T04:17:49;98688.56;;;7.52;nan
9239;BME280;4654;43.242;27.976;2024-03-02T04:20:16;98692.22;;;7.56;nan
9239;BME280;4654;43.242;27.976;2024-03-02T04:22:44;98693.53;;;7.49;nan
9239;BME280;4654;43.242;27.976;2024-03-02T04:25:12;98695.88;;;7.50;nan
9239;BME280;4654;43.242;27.976;2024-03-02T04:27:39;98697.47;;;7.46;nan
9239;BME280;4654;43.242;27.976;2024-03-02T04:30:07;98691.97;;;7.53;nan
9239;BME280;4654;43.242;27.976;2024-03-02T04:32:34;98688.81;;;7.56;nan
9239;BME280;4654;43.242;27.976;2024-03-02T04:35:02;98690.09;;;7.58;nan
9239;BME280;4654;43.242;27.976;2024-03-02T04:37:29;98692.75;;;7.53;nan
9239;BME280;4654;43.242;27.976;2024-03-02T04:39:58;98689.38;;;7.48;nan
9239;BME280;4654;43.242;27.976;2024-03-02T04:42:25;98696.41;;;7.47;nan
9239;BME280;4654;43.242;27.976;2024-03-02T04:44:52;98702.69;;;7.46;nan
9239;BME280;4654;43.242;27.976;2024-03-02T04:47:19;98694.59;;;7.48;nan
9239;BME280;4654;43.242;27.976;2024-03-02T04:49:46;98696.69;;;7.46;nan
9239;BME280;4654;43.242;27.976;2024-03-02T04:52:14;98712.38;;;7.46;nan
9239;BME280;4654;43.242;27.976;2024-03-02T04:54:41;98712.09;;;7.47;nan
9239;BME280;4654;43.242;27.976;2024-03-02T04:57:23;98698.75;;;7.44;nan
9239;BME280;4654;43.242;27.976;2024-03-02T04:59:50;98702.16;;;7.49;nan
9239;BME280;4654;43.242;27.976;2024-03-02T05:02:18;98696.94;;;7.49;nan
9239;BME280;4654;43.242;27.976;2024-03-02T05:04:45;98711.56;;;7.55;nan
9239;BME280;4654;43.242;27.976;2024-03-02T05:07:13;98701.09;;;7.60;nan
9239;BME280;4654;43.242;27.976;2024-03-02T05:09:41;98699.00;;;7.62;nan
9239;BME280;4654;43.242;27.976;2024-03-02T05:12:08;98698.47;;;7.70;nan
9239;BME280;4654;43.242;27.976;2024-03-02T05:15:02;98701.06;;;7.75;nan
9239;BME280;4654;43.242;27.976;2024-03-02T05:17:29;98706.81;;;7.77;nan
9239;BME280;4654;43.242;27.976;2024-03-02T05:19:57;98701.03;;;7.85;nan
9239;BME280;4654;43.242;27.976;2024-03-02T05:22:24;98693.44;;;7.89;nan
9239;BME280;4654;43.242;27.976;2024-03-02T05:24:51;98695.75;;;8.00;nan
9239;BME280;4654;43.242;27.976;2024-03-02T05:27:18;98695.22;;;8.03;nan
9239;BME280;4654;43.242;27.976;2024-03-02T05:29:45;98699.38;;;8.04;nan
9239;BME280;4654;43.242;27.976;2024-03-02T05:32:14;98702.78;;;8.10;nan
9239;BME280;4654;43.242;27.976;2024-03-02T05:34:41;98691.25;;;8.11;nan
9239;BME280;4654;43.242;27.976;2024-03-02T05:37:08;98691.25;;;8.21;nan
9239;BME280;4654;43.242;27.976;2024-03-02T05:39:35;98694.09;;;8.29;nan
9239;BME280;4654;43.242;27.976;2024-03-02T05:42:03;98685.69;;;8.37;nan
9239;BME280;4654;43.242;27.976;2024-03-02T05:44:30;98683.50;;;8.49;nan
9239;BME280;4654;43.242;27.976;2024-03-02T05:46:57;98685.56;;;8.57;nan
9239;BME280;4654;43.242;27.976;2024-03-02T05:49:26;98678.94;;;8.70;nan
9239;BME280;4654;43.242;27.976;2024-03-02T05:51:53;98680.38;;;8.90;nan
9239;BME280;4654;43.242;27.976;2024-03-02T05:54:20;98674.94;;;9.15;nan
9239;BME280;4654;43.242;27.976;2024-03-02T05:56:48;98665.22;;;9.44;nan
9239;BME280;4654;43.242;27.976;2024-03-02T05:59:15;98671.41;;;9.82;nan
9239;BME280;4654;43.242;27.976;2024-03-02T06:01:43;98660.16;;;10.23;nan
9239;BME280;4654;43.242;27.976;2024-03-02T06:04:12;98667.41;;;10.68;nan
9239;BME280;4654;43.242;27.976;2024-03-02T06:06:41;98652.69;;;11.49;nan
9239;BME280;4654;43.242;27.976;2024-03-02T06:09:08;98647.31;;;12.21;nan
9239;BME280;4654;43.242;27.976;2024-03-02T06:11:39;98649.38;;;12.11;nan
9239;BME280;4654;43.242;27.976;2024-03-02T06:14:08;98653.97;;;12.54;nan
9239;BME280;4654;43.242;27.976;2024-03-02T06:16:35;98663.13;;;12.35;nan
9239;BME280;4654;43.242;27.976;2024-03-02T06:19:02;98659.44;;;11.95;nan
9239;BME280;4654;43.242;27.976;2024-03-02T06:21:30;98665.50;;;11.82;nan
9239;BME280;4654;43.242;27.976;2024-03-02T06:23:58;98664.91;;;11.72;nan
9239;BME280;4654;43.242;27.976;2024-03-02T06:26:26;98661.28;;;11.68;nan
9239;BME280;4654;43.242;27.976;2024-03-02T06:28:55;98661.00;;;11.70;nan
9239;BME280;4654;43.242;27.976;2024-03-02T06:31:22;98658.59;;;11.55;nan
9239;BME280;4654;43.242;27.976;2024-03-02T06:33:49;98653.19;;;11.65;nan
9239;BME280;4654;43.242;27.976;2024-03-02T06:36:17;98651.25;;;11.70;nan
9239;BME280;4654;43.242;27.976;2024-03-02T06:38:44;98657.69;;;11.77;nan
9239;BME280;4654;43.242;27.976;2024-03-02T06:41:12;98659.16;;;11.83;nan
9239;BME280;4654;43.242;27.976;2024-03-02T06:43:40;98653.41;;;11.81;nan
9239;BME280;4654;43.242;27.976;2024-03-02T06:46:07;98652.91;;;11.93;nan
9239;BME280;4654;43.242;27.976;2024-03-02T06:48:35;98653.47;;;12.17;nan
9239;BME280;4654;43.242;27.976;2024-03-02T06:51:02;98651.16;;;12.51;nan
9239;BME280;4654;43.242;27.976;2024-03-02T06:53:29;98659.50;;;12.66;nan
9239;BME280;4654;43.242;27.976;2024-03-02T06:55:59;98659.00;;;12.78;nan
9239;BME280;4654;43.242;27.976;2024-03-02T06:58:27;98651.91;;;12.87;nan
9239;BME280;4654;43.242;27.976;2024-03-02T07:00:54;98654.84;;;12.85;nan
9239;BME280;4654;43.242;27.976;2024-03-02T07:03:22;98652.72;;;12.74;nan
9239;BME280;4654;43.242;27.976;2024-03-02T07:05:49;98651.88;;;12.65;nan
9239;BME280;4654;43.242;27.976;2024-03-02T07:08:16;98666.97;;;12.51;nan
9239;BME280;4654;43.242;27.976;2024-03-02T07:10:43;98665.75;;;12.35;nan
9239;BME280;4654;43.242;27.976;2024-03-02T07:13:10;98673.47;;;12.18;nan
9239;BME280;4654;43.242;27.976;2024-03-02T07:15:40;98661.75;;;12.10;nan
9239;BME280;4654;43.242;27.976;2024-03-02T07:18:31;98667.38;;;12.31;nan
9239;BME280;4654;43.242;27.976;2024-03-02T07:20:57;98672.25;;;12.51;nan
9239;BME280;4654;43.242;27.976;2024-03-02T07:23:26;98672.69;;;12.66;nan
9239;BME280;4654;43.242;27.976;2024-03-02T07:25:53;98666.22;;;12.72;nan
9239;BME280;4654;43.242;27.976;2024-03-02T07:28:22;98667.22;;;12.63;nan
9239;BME280;4654;43.242;27.976;2024-03-02T07:30:59;98666.78;;;12.47;nan
9239;BME280;4654;43.242;27.976;2024-03-02T07:33:26;98657.59;;;12.58;nan
9239;BME280;4654;43.242;27.976;2024-03-02T07:35:54;98669.25;;;12.66;nan
9239;BME280;4654;43.242;27.976;2024-03-02T07:38:21;98662.31;;;12.70;nan
9239;BME280;4654;43.242;27.976;2024-03-02T07:40:49;98664.00;;;12.66;nan
9239;BME280;4654;43.242;27.976;2024-03-02T07:43:17;98656.44;;;12.51;nan
9239;BME280;4654;43.242;27.976;2024-03-02T07:45:44;98659.78;;;12.29;nan
9239;BME280;4654;43.242;27.976;2024-03-02T07:48:13;98659.22;;;12.05;nan
9239;BME280;4654;43.242;27.976;2024-03-02T07:50:41;98663.81;;;12.13;nan
9239;BME280;4654;43.242;27.976;2024-03-02T07:53:08;98662.94;;;12.04;nan
9239;BME280;4654;43.242;27.976;2024-03-02T07:55:36;98664.59;;;12.00;nan
9239;BME280;4654;43.242;27.976;2024-03-02T07:58:03;98665.66;;;11.99;nan
9239;BME280;4654;43.242;27.976;2024-03-02T08:00:30;98671.03;;;11.94;nan
9239;BME280;4654;43.242;27.976;2024-03-02T08:02:58;98671.72;;;11.86;nan
9239;BME280;4654;43.242;27.976;2024-03-02T08:05:27;98668.72;;;11.93;nan
9239;BME280;4654;43.242;27.976;2024-03-02T08:07:54;98666.47;;;11.86;nan
9239;BME280;4654;43.242;27.976;2024-03-02T08:10:21;98611.66;;;11.62;nan
9239;BME280;4654;43.242;27.976;2024-03-02T08:12:48;98674.94;;;11.83;nan
9239;BME280;4654;43.242;27.976;2024-03-02T08:15:16;98663.25;;;11.89;nan
9239;BME280;4654;43.242;27.976;2024-03-02T08:17:44;98666.53;;;12.08;nan
9239;BME280;4654;43.242;27.976;2024-03-02T08:20:15;98667.34;;;12.09;nan
9239;BME280;4654;43.242;27.976;2024-03-02T08:22:45;98664.31;;;12.02;nan
9239;BME280;4654;43.242;27.976;2024-03-02T08:25:12;98659.91;;;12.11;nan
9239;BME280;4654;43.242;27.976;2024-03-02T08:27:40;98663.03;;;12.26;nan
9239;BME280;4654;43.242;27.976;2024-03-02T08:30:08;98655.03;;;12.53;nan
9239;BME280;4654;43.242;27.976;2024-03-02T08:32:36;98656.09;;;12.66;nan
9239;BME280;4654;43.242;27.976;2024-03-02T08:35:04;98659.47;;;12.80;nan
9239;BME280;4654;43.242;27.976;2024-03-02T08:37:32;98653.16;;;12.89;nan
9239;BME280;4654;43.242;27.976;2024-03-02T08:40:01;98657.50;;;13.07;nan
9239;BME280;4654;43.242;27.976;2024-03-02T08:42:29;98665.28;;;13.34;nan
9239;BME280;4654;43.242;27.976;2024-03-02T08:44:56;98657.53;;;13.68;nan
9239;BME280;4654;43.242;27.976;2024-03-02T08:47:26;98656.38;;;13.99;nan
9239;BME280;4654;43.242;27.976;2024-03-02T08:49:53;98661.66;;;13.99;nan
9239;BME280;4654;43.242;27.976;2024-03-02T08:52:21;98662.56;;;14.42;nan
9239;BME280;4654;43.242;27.976;2024-03-02T08:54:48;98666.31;;;14.67;nan
9239;BME280;4654;43.242;27.976;2024-03-02T08:57:16;98666.59;;;15.16;nan
9239;BME280;4654;43.242;27.976;2024-03-02T08:59:44;98671.69;;;15.46;nan
9239;BME280;4654;43.242;27.976;2024-03-02T09:02:11;98670.47;;;15.44;nan
9239;BME280;4654;43.242;27.976;2024-03-02T09:04:38;98679.00;;;15.58;nan
9239;BME280;4654;43.242;27.976;2024-03-02T09:07:05;98680.09;;;15.48;nan
9239;BME280;4654;43.242;27.976;2024-03-02T09:09:33;98685.28;;;15.91;nan
9239;BME280;4654;43.242;27.976;2024-03-02T09:12:00;98679.53;;;15.80;nan
9239;BME280;4654;43.242;27.976;2024-03-02T09:14:29;98682.53;;;15.79;nan
9239;BME280;4654;43.242;27.976;2024-03-02T09:16:57;98685.38;;;15.57;nan
9239;BME280;4654;43.242;27.976;2024-03-02T09:19:24;98683.31;;;14.91;nan
9239;BME280;4654;43.242;27.976;2024-03-02T09:21:51;98686.72;;;14.66;nan
9239;BME280;4654;43.242;27.976;2024-03-02T09:24:21;98682.34;;;14.87;nan
9239;BME280;4654;43.242;27.976;2024-03-02T09:26:48;98671.13;;;15.15;nan
9239;BME280;4654;43.242;27.976;2024-03-02T09:29:15;98671.41;;;15.39;nan
9239;BME280;4654;43.242;27.976;2024-03-02T09:31:44;98668.47;;;15.32;nan
9239;BME280;4654;43.242;27.976;2024-03-02T09:34:12;98672.53;;;15.04;nan
9239;BME280;4654;43.242;27.976;2024-03-02T09:36:40;98670.53;;;14.84;nan
9239;BME280;4654;43.242;27.976;2024-03-02T09:39:07;98672.22;;;14.97;nan
9239;BME280;4654;43.242;27.976;2024-03-02T09:41:35;98671.44;;;15.22;nan
9239;BME280;4654;43.242;27.976;2024-03-02T09:44:04;98679.19;;;15.27;nan
9239;BME280;4654;43.242;27.976;2024-03-02T09:46:31;98670.97;;;15.29;nan
9239;BME280;4654;43.242;27.976;2024-03-02T09:49:00;98670.53;;;14.84;nan
9239;BME280;4654;43.242;27.976;2024-03-02T09:51:27;98667.09;;;14.84;nan
9239;BME280;4654;43.242;27.976;2024-03-02T09:53:55;98662.00;;;14.71;nan
9239;BME280;4654;43.242;27.976;2024-03-02T09:56:22;98667.41;;;14.99;nan
9239;BME280;4654;43.242;27.976;2024-03-02T09:58:50;98658.03;;;15.19;nan
9239;BME280;4654;43.242;27.976;2024-03-02T10:01:17;98664.28;;;15.06;nan
9239;BME280;4654;43.242;27.976;2024-03-02T10:03:45;98659.81;;;14.64;nan
9239;BME280;4654;43.242;27.976;2024-03-02T10:06:20;98648.72;;;15.04;nan
9239;BME280;4654;43.242;27.976;2024-03-02T10:08:48;98655.56;;;15.05;nan
9239;BME280;4654;43.242;27.976;2024-03-02T10:11:28;98661.34;;;14.99;nan
9239;BME280;4654;43.242;27.976;2024-03-02T10:14:07;98665.25;;;14.93;nan
9239;BME280;4654;43.242;27.976;2024-03-02T10:16:36;98655.25;;;15.07;nan
9239;BME280;4654;43.242;27.976;2024-03-02T10:19:16;98656.22;;;14.85;nan
9239;BME280;4654;43.242;27.976;2024-03-02T10:21:46;98657.75;;;14.53;nan
9239;BME280;4654;43.242;27.976;2024-03-02T10:24:13;98667.53;;;14.27;nan
9239;BME280;4654;43.242;27.976;2024-03-02T10:26:40;98671.75;;;13.89;nan
9239;BME280;4654;43.242;27.976;2024-03-02T10:29:08;98665.38;;;13.90;nan
9239;BME280;4654;43.242;27.976;2024-03-02T10:31:37;98658.66;;;13.75;nan
9239;BME280;4654;43.242;27.976;2024-03-02T10:34:05;98652.38;;;13.63;nan
9239;BME280;4654;43.242;27.976;2024-03-02T10:36:33;98647.47;;;13.78;nan
9239;BME280;4654;43.242;27.976;2024-03-02T10:39:04;98642.09;;;13.92;nan
9239;BME280;4654;43.242;27.976;2024-03-02T10:41:33;98627.34;;;13.60;nan
9239;BME280;4654;43.242;27.976;2024-03-02T10:44:03;98635.41;;;13.94;nan
9239;BME280;4654;43.242;27.976;2024-03-02T10:46:31;98630.94;;;14.03;nan
9239;BME280;4654;43.242;27.976;2024-03-02T10:48:59;98639.81;;;14.07;nan
9239;BME280;4654;43.242;27.976;2024-03-02T10:51:28;98627.53;;;14.11;nan
9239;BME280;4654;43.242;27.976;2024-03-02T10:53:58;98624.69;;;13.91;nan
9239;BME280;4654;43.242;27.976;2024-03-02T10:56:30;98619.59;;;14.11;nan
9239;BME280;4654;43.242;27.976;2024-03-02T10:59:03;98623.69;;;14.17;nan
9239;BME280;4654;43.242;27.976;2024-03-02T11:01:33;98603.94;;;14.49;nan
9239;BME280;4654;43.242;27.976;2024-03-02T11:04:02;98606.41;;;14.79;nan
9239;BME280;4654;43.242;27.976;2024-03-02T11:06:32;98616.69;;;14.72;nan
9239;BME280;4654;43.242;27.976;2024-03-02T11:09:06;98597.41;;;14.80;nan
9239;BME280;4654;43.242;27.976;2024-03-02T11:11:40;98611.25;;;14.43;nan
9239;BME280;4654;43.242;27.976;2024-03-02T11:14:13;98611.56;;;14.42;nan
9239;BME280;4654;43.242;27.976;2024-03-02T11:16:43;98604.28;;;14.47;nan
9239;BME280;4654;43.242;27.976;2024-03-02T11:19:12;98614.34;;;14.20;nan
9239;BME280;4654;43.242;27.976;2024-03-02T11:21:40;98610.16;;;14.27;nan
9239;BME280;4654;43.242;27.976;2024-03-02T11:24:31;98605.81;;;14.40;nan
9239;BME280;4654;43.242;27.976;2024-03-02T11:27:05;98611.72;;;14.28;nan
9239;BME280;4654;43.242;27.976;2024-03-02T11:29:45;98615.97;;;13.90;nan
9239;BME280;4654;43.242;27.976;2024-03-02T11:32:19;98609.25;;;13.76;nan
9239;BME280;4654;43.242;27.976;2024-03-02T11:34:49;98619.41;;;13.52;nan
9239;BME280;4654;43.242;27.976;2024-03-02T11:37:17;98609.72;;;13.39;nan
9239;BME280;4654;43.242;27.976;2024-03-02T11:39:46;98603.19;;;13.36;nan
9239;BME280;4654;43.242;27.976;2024-03-02T11:42:15;98604.47;;;13.47;nan
9239;BME280;4654;43.242;27.976;2024-03-02T11:44:44;98593.88;;;13.78;nan
9239;BME280;4654;43.242;27.976;2024-03-02T11:47:13;98587.25;;;14.06;nan
9239;BME280;4654;43.242;27.976;2024-03-02T11:49:45;98595.66;;;14.08;nan
9239;BME280;4654;43.242;27.976;2024-03-02T11:52:13;98601.38;;;14.01;nan
9239;BME280;4654;43.242;27.976;2024-03-02T11:54:42;98593.75;;;13.83;nan
9239;BME280;4654;43.242;27.976;2024-03-02T11:57:16;98596.88;;;13.85;nan
9239;BME280;4654;43.242;27.976;2024-03-02T11:59:45;98599.00;;;13.74;nan
9239;BME280;4654;43.242;27.976;2024-03-02T12:02:17;98595.09;;;13.63;nan
9239;BME280;4654;43.242;27.976;2024-03-02T12:04:45;98594.91;;;13.60;nan
9239;BME280;4654;43.242;27.976;2024-03-02T12:07:18;98589.44;;;13.56;nan
9239;BME280;4654;43.242;27.976;2024-03-02T12:09:46;98591.25;;;13.39;nan
9239;BME280;4654;43.242;27.976;2024-03-02T12:12:15;98596.59;;;13.17;nan
9239;BME280;4654;43.242;27.976;2024-03-02T12:14:50;98588.38;;;13.19;nan
9239;BME280;4654;43.242;27.976;2024-03-02T12:17:18;98597.19;;;13.14;nan
9239;BME280;4654;43.242;27.976;2024-03-02T12:19:46;98591.34;;;12.73;nan
9239;BME280;4654;43.242;27.976;2024-03-02T12:22:13;98581.16;;;12.58;nan
9239;BME280;4654;43.242;27.976;2024-03-02T12:24:41;98587.22;;;12.81;nan
9239;BME280;4654;43.242;27.976;2024-03-02T12:27:12;98589.25;;;12.84;nan
9239;BME280;4654;43.242;27.976;2024-03-02T12:29:40;98591.84;;;12.97;nan
9239;BME280;4654;43.242;27.976;2024-03-02T12:32:08;98587.38;;;13.06;nan
9239;BME280;4654;43.242;27.976;2024-03-02T12:34:35;98583.59;;;12.99;nan
9239;BME280;4654;43.242;27.976;2024-03-02T12:37:04;98584.56;;;12.81;nan
9239;BME280;4654;43.242;27.976;2024-03-02T12:39:31;98578.94;;;12.52;nan
9239;BME280;4654;43.242;27.976;2024-03-02T12:41:59;98584.31;;;12.47;nan
9239;BME280;4654;43.242;27.976;2024-03-02T12:44:26;98596.56;;;12.29;nan
9239;BME280;4654;43.242;27.976;2024-03-02T12:46:54;98589.88;;;12.23;nan
9239;BME280;4654;43.242;27.976;2024-03-02T12:49:22;98589.44;;;12.30;nan
9239;BME280;4654;43.242;27.976;2024-03-02T12:51:50;98586.00;;;12.43;nan
9239;BME280;4654;43.242;27.976;2024-03-02T12:54:22;98590.44;;;12.34;nan
9239;BME280;4654;43.242;27.976;2024-03-02T12:56:50;98588.34;;;12.09;nan
9239;BME280;4654;43.242;27.976;2024-03-02T12:59:20;98583.50;;;12.24;nan
9239;BME280;4654;43.242;27.976;2024-03-02T13:01:51;98591.56;;;12.41;nan
9239;BME280;4654;43.242;27.976;2024-03-02T13:04:24;98587.47;;;12.35;nan
9239;BME280;4654;43.242;27.976;2024-03-02T13:06:51;98587.78;;;12.34;nan
9239;BME280;4654;43.242;27.976;2024-03-02T13:09:19;98592.03;;;12.43;nan
9239;BME280;4654;43.242;27.976;2024-03-02T13:11:46;98594.44;;;12.53;nan
9239;BME280;4654;43.242;27.976;2024-03-02T13:14:14;98597.75;;;12.59;nan
9239;BME280;4654;43.242;27.976;2024-03-02T13:16:42;98596.72;;;12.68;nan
9239;BME280;4654;43.242;27.976;2024-03-02T13:19:09;98592.22;;;12.69;nan
9239;BME280;4654;43.242;27.976;2024-03-02T13:21:38;98577.66;;;12.49;nan
9239;BME280;4654;43.242;27.976;2024-03-02T13:24:06;98594.97;;;12.64;nan
9239;BME280;4654;43.242;27.976;2024-03-02T13:26:34;98596.25;;;12.66;nan
9239;BME280;4654;43.242;27.976;2024-03-02T13:29:01;98593.53;;;12.58;nan
9239;BME280;4654;43.242;27.976;2024-03-02T13:31:28;98596.97;;;12.58;nan
9239;BME280;4654;43.242;27.976;2024-03-02T13:33:55;98598.75;;;12.71;nan
9239;BME280;4654;43.242;27.976;2024-03-02T13:36:23;98596.78;;;12.77;nan
9239;BME280;4654;43.242;27.976;2024-03-02T13:38:51;98597.75;;;12.81;nan
9239;BME280;4654;43.242;27.976;2024-03-02T13:41:19;98608.75;;;12.61;nan
9239;BME280;4654;43.242;27.976;2024-03-02T13:43:46;98598.72;;;12.27;nan